首页
METAR-TAF:

METAR-TAF

机场 :

吉布提-安布利国际机场

吉布地, 吉布提

纬度: 11-33N, 经度: 043-10E, 海拔: 49米

当前天气观测

该预报发布于33分钟前的09:00 UTC
风速13节,风向西
温度 42°C
湿度 29%
气压 1004 hPa
能見度: 8000
天空无云

METAR: HDAM 190900Z 28013KT 8000 HZ SKC 42/20 Q1004

时间: 12:33 (09:33 UTC)

预报

该预报发布于4小时和33分钟前的05:00 UTC
预报有效从19日的 06点(UTC)到 20日的 06点(UTC)
风速15节,风向西,有时为25节阵风
能見度: 6000
散云层高于15000英尺
成为
从 19日的 15点(UTC)到 19日的 18点(UTC)
风速5节,风向多变
能見度: 8000
少量云层高于3000英尺, 积雨云.
成为
从 20日的 00点(UTC)到 20日的 06点(UTC)
风速10节,风向西
能見度: 8000
散云层高于15000英尺

TAF: HDAM 190500Z 1906/2006 27015G25KT 6000 HZ/BLDU SCT150 BECMG 1915/1918 VRB05KT 8000 HZ FEW030CB BECMG 2000/2006 26010KT 8000 HZ SCT150

超过4000个机场的气象观测和天气预报(METAR&TAF报告)。

可查询的气象台以黄色和红色小点在地图上表示。

将鼠标移到小点上方,可查看气象台名称。

然后点击查看天气观测和预报。

如需切换地图:点击带黑十字的绿色按钮放大地图;点击带横线的绿色按钮缩小地图;或者点击绿色箭头查看邻近地区的地图。


METAR-TAF: